Time;durP1;ratioP1;P1;durP2;ratioP2;P2;SDS_P1;SDS_P2;PMS_P1;PMS_P2;Temp;Humidity;BMP_temperature;BMP_pressure;BME280_temperature;BME280_humidity;BME280_pressure;Samples;Min_cycle;Max_cycle;Signal;HPM_P1;HPM_P2
2022/04/01 00:00:34;;;;;;;;;;;;;;;;;;2098204;28;20393;-52
2022/04/01 00:01:34;;;;;;;;;;;;;;;;;;2098019;28;20396;-51
2022/04/01 00:02:36;;;;;;;;;;;;;;;;;;2098687;28;19935;-52
2022/04/01 00:03:37;;;;;;;;;;;;;;;;;;2098240;28;19924;-51
2022/04/01 00:04:39;;;;;;;;;;;;;;;;;;2098310;28;20439;-54
2022/04/01 00:05:40;;;;;;;;;;;;;;;;;;2098483;28;19979;-50
2022/04/01 00:06:41;;;;;;;;;;;;;;;;;;2098502;28;19979;-51
2022/04/01 00:07:42;;;;;;;;;;;;;;;;;;2097914;28;20122;-45
2022/04/01 00:08:43;;;;;;;;;;;;;;;;;;2098276;28;19928;-53
2022/04/01 00:09:44;;;;;;;;;;;;;;;;;;2098490;28;19978;-47
2022/04/01 00:10:45;;;;;;;;;;;;;;;;;;2098294;28;20370;-44
2022/04/01 00:11:46;;;;;;;;;;;;;;;;;;2098114;28;19931;-52
2022/04/01 00:12:47;;;;;;;;;;;;;;;;;;2098006;28;19925;-52
2022/04/01 00:13:48;;;;;;;;;;;;;;;;;;2097822;28;19952;-51
2022/04/01 00:14:49;;;;;;;;;;;;;;;;;;2098224;28;19931;-50
2022/04/01 00:15:50;;;;;;;;;;;;;;;;;;2097491;28;20393;-49
2022/04/01 00:16:51;;;;;;;;;;;;;;;;;;2097861;28;19931;-50
2022/04/01 00:17:52;;;;;;;;;;;;;;;;;;2098164;28;19936;-54
2022/04/01 00:18:55;;;;;;;;;;;;;;;;;;2098309;28;19925;-50
2022/04/01 00:19:56;;;;;;;;;;;;;;;;;;2098093;28;19925;-51
2022/04/01 00:20:57;;;;;;;;;;;;;;;;;;2098011;28;20336;-51
2022/04/01 00:21:58;;;;;;;;;;;;;;;;;;2098182;28;19985;-51
2022/04/01 00:22:59;;;;;;;;;;;;;;;;;;2098048;28;19925;-49
2022/04/01 00:24:00;;;;;;;;;;;;;;;;;;2098093;28;19925;-53
2022/04/01 00:25:01;;;;;;;;;;;;;;;;;;2098270;28;19974;-46
2022/04/01 00:26:02;;;;;;;;;;;;;;;;;;2098069;28;19928;-45
2022/04/01 00:27:03;;;;;;;;;;;;;;;;;;2098120;28;20348;-51
2022/04/01 00:28:04;;;;;;;;;;;;;;;;;;2098088;28;20409;-51
2022/04/01 00:29:14;;;;;;;;;;;;;;;;;;2098200;28;19939;-44
2022/04/01 00:30:16;;;;;;;;;;;;;;;;;;2098335;28;20275;-44
2022/04/01 00:31:16;;;;;;;;;;;;;;;;;;2097871;28;19925;-44
2022/04/01 00:32:18;;;;;;;;;;;;;;;;;;2096542;28;19925;-44
2022/04/01 00:33:18;;;;;;;;;;;;;;;;;;2090120;28;19925;-48
2022/04/01 00:34:20;;;;;;;;;;;;;;;;;;2089675;28;19924;-51
2022/04/01 00:35:20;;;;;;;;;;;;;;;;;;2089735;28;19925;-50
2022/04/01 00:36:22;;;;;;;;;;;;;;;;;;2089561;28;20089;-51
2022/04/01 00:37:22;;;;;;;;;;;;;;;;;;2089800;28;20390;-44
2022/04/01 00:38:24;;;;;;;;;;;;;;;;;;2089962;28;19924;-53
2022/04/01 00:39:24;;;;;;;;;;;;;;;;;;2091846;28;19970;-46
2022/04/01 00:40:26;;;;;;;;;;;;;;;;;;2097914;28;20005;-47
2022/04/01 00:41:26;;;;;;;;;;;;;;;;;;2097692;28;20324;-47
2022/04/01 00:42:29;;;;;;;;;;;;;;;;;;2097870;28;19928;-46
2022/04/01 00:43:30;;;;;;;;;;;;;;;;;;2098127;28;20031;-53
2022/04/01 00:44:31;;;;;;;;;;;;;;;;;;2098214;28;19931;-51
2022/04/01 00:45:33;;;;;;;;;;;;;;;;;;2098109;28;19924;-48
2022/04/01 00:46:34;;;;;;;;;;;;;;;;;;2097964;28;19931;-48
2022/04/01 00:47:35;;;;;;;;;;;;;;;;;;2097970;28;20272;-45
2022/04/01 00:48:36;;;;;;;;;;;;;;;;;;2097817;28;19931;-47
2022/04/01 00:49:37;;;;;;;;;;;;;;;;;;2098716;28;19968;-47
2022/04/01 00:50:38;;;;;;;;;;;;;;;;;;2098275;28;19947;-48
2022/04/01 00:51:40;;;;;;;;;;;;;;;;;;2098029;28;19925;-45
2022/04/01 00:52:42;;;;;;;;;;;;;;;;;;2097886;28;19936;-46
2022/04/01 00:53:43;;;;;;;;;;;;;;;;;;2098050;28;19929;-45
2022/04/01 00:54:44;;;;;;;;;;;;;;;;;;2097766;28;20434;-45
2022/04/01 00:55:45;;;;;;;;;;;;;;;;;;2097974;28;19932;-44
2022/04/01 00:56:46;;;;;;;;;;;;;;;;;;2097632;28;19928;-46
2022/04/01 00:57:47;;;;;;;;;;;;;;;;;;2097757;28;20338;-46
2022/04/01 00:58:48;;;;;;;;;;;;;;;;;;2097935;28;19970;-45
2022/04/01 00:59:50;;;;;;;;;;;;;;;;;;2098223;28;19928;-45
2022/04/01 01:00:51;;;;;;;;;;;;;;;;;;2098377;28;19924;-45
2022/04/01 01:01:52;;;;;;;;;;;;;;;;;;2097705;28;20023;-44
2022/04/01 01:02:54;;;;;;;;;;;;;;;;;;2097899;28;19948;-44
2022/04/01 01:03:55;;;;;;;;;;;;;;;;;;2098460;28;19951;-48
2022/04/01 01:04:56;;;;;;;;;;;;;;;;;;2097937;28;19932;-47
2022/04/01 01:05:57;;;;;;;;;;;;;;;;;;2097984;28;19926;-48
2022/04/01 01:06:59;;;;;;;;;;;;;;;;;;2097980;28;19931;-47
2022/04/01 01:08:04;;;;;;;;;;;;;;;;;;2097746;28;19924;-48
2022/04/01 01:09:05;;;;;;;;;;;;;;;;;;2097949;28;19928;-44
2022/04/01 01:10:06;;;;;;;;;;;;;;;;;;2097571;28;19971;-44
2022/04/01 01:11:07;;;;;;;;;;;;;;;;;;2097795;28;19950;-46
2022/04/01 01:12:08;;;;;;;;;;;;;;;;;;2097603;28;19925;-44
2022/04/01 01:13:09;;;;;;;;;;;;;;;;;;2098508;28;19931;-44
2022/04/01 01:14:10;;;;;;;;;;;;;;;;;;2097853;28;20368;-45
2022/04/01 01:15:11;;;;;;;;;;;;;;;;;;2097740;28;19924;-47
2022/04/01 01:16:12;;;;;;;;;;;;;;;;;;2098749;28;20203;-47
2022/04/01 01:17:14;;;;;;;;;;;;;;;;;;2098426;28;20011;-47
2022/04/01 01:18:15;;;;;;;;;;;;;;;;;;2097367;28;19971;-46
2022/04/01 01:19:16;;;;;;;;;;;;;;;;;;2097853;28;19925;-46
2022/04/01 01:20:18;;;;;;;;;;;;;;;;;;2098054;28;19951;-48
2022/04/01 01:21:19;;;;;;;;;;;;;;;;;;2097380;28;20149;-48
2022/04/01 01:22:20;;;;;;;;;;;;;;;;;;2098105;28;20393;-49
2022/04/01 01:23:21;;;;;;;;;;;;;;;;;;2097665;28;20361;-51
2022/04/01 01:24:23;;;;;;;;;;;;;;;;;;2097136;28;19978;-49
2022/04/01 01:25:25;;;;;;;;;;;;;;;;;;2094205;28;19931;-50
2022/04/01 01:26:26;;;;;;;;;;;;;;;;;;2089551;28;19936;-45
2022/04/01 01:27:27;;;;;;;;;;;;;;;;;;2091865;28;19925;-45
2022/04/01 01:28:28;;;;;;;;;;;;;;;;;;2095638;28;19924;-44
2022/04/01 01:29:29;;;;;;;;;;;;;;;;;;2099150;28;19924;-46
2022/04/01 01:30:30;;;;;;;;;;;;;;;;;;2099356;28;19932;-50
2022/04/01 01:31:32;;;;;;;;;;;;;;;;;;2099120;28;19925;-49
2022/04/01 01:32:34;;;;;;;;;;;;;;;;;;2095513;28;19935;-52
2022/04/01 01:33:35;;;;;;;;;;;;;;;;;;2090760;28;19991;-53
2022/04/01 01:34:36;;;;;;;;;;;;;;;;;;2090779;28;19925;-52
2022/04/01 01:36:57;;;;;;;;;;;;;;;;;;2096737;28;19932;-45
2022/04/01 01:37:58;;;;;;;;;;;;;;;;;;2099286;28;19985;-46
2022/04/01 01:38:59;;;;;;;;;;;;;;;;;;2099272;28;19974;-46
2022/04/01 01:40:00;;;;;;;;;;;;;;;;;;2098906;28;19932;-54
2022/04/01 01:41:02;;;;;;;;;;;;;;;;;;2097796;28;19932;-51
2022/04/01 01:42:03;;;;;;;;;;;;;;;;;;2090976;28;20369;-48
2022/04/01 01:43:04;;;;;;;;;;;;;;;;;;2090969;28;19933;-46
2022/04/01 01:44:05;;;;;;;;;;;;;;;;;;2092090;28;19929;-46
2022/04/01 01:45:07;;;;;;;;;;;;;;;;;;2099062;28;19924;-47
2022/04/01 01:46:07;;;;;;;;;;;;;;;;;;2099312;28;19954;-50
2022/04/01 01:47:09;;;;;;;;;;;;;;;;;;2099011;28;19931;-49
2022/04/01 01:48:09;;;;;;;;;;;;;;;;;;2099195;28;19924;-45
2022/04/01 01:49:11;;;;;;;;;;;;;;;;;;2099166;28;20401;-45
2022/04/01 01:55:30;;;;;;;;;;;;;;;;;;2090629;28;19925;-47
2022/04/01 01:56:31;;;;;;;;;;;;;;;;;;2090987;28;19924;-51
2022/04/01 01:57:35;;;;;;;;;;;;;;;;;;2090935;28;19925;-44
2022/04/01 01:58:36;;;;;;;;;;;;;;;;;;2092062;28;20270;-44
2022/04/01 01:59:38;;;;;;;;;;;;;;;;;;2091250;28;19971;-49
2022/04/01 02:00:39;;;;;;;;;;;;;;;;;;2090379;28;20342;-47
2022/04/01 02:01:41;;;;;;;;;;;;;;;;;;2090844;28;19924;-45
2022/04/01 02:02:41;;;;;;;;;;;;;;;;;;2090878;28;19932;-47
2022/04/01 02:03:43;;;;;;;;;;;;;;;;;;2096872;28;19970;-45
2022/04/01 02:04:44;;;;;;;;;;;;;;;;;;2099480;28;19972;-48
2022/04/01 02:05:46;;;;;;;;;;;;;;;;;;2099101;28;20023;-47
2022/04/01 02:06:48;;;;;;;;;;;;;;;;;;2098941;28;19932;-48
2022/04/01 02:07:49;;;;;;;;;;;;;;;;;;2099605;28;20011;-45
2022/04/01 02:08:50;;;;;;;;;;;;;;;;;;2099508;28;19932;-45
2022/04/01 02:09:53;;;;;;;;;;;;;;;;;;2099838;28;20144;-44
2022/04/01 02:10:54;;;;;;;;;;;;;;;;;;2098934;28;19978;-46
2022/04/01 02:11:55;;;;;;;;;;;;;;;;;;2099284;28;20415;-45
2022/04/01 02:12:56;;;;;;;;;;;;;;;;;;2099303;28;20061;-47
2022/04/01 02:13:57;;;;;;;;;;;;;;;;;;2098997;28;19959;-47
2022/04/01 02:14:59;;;;;;;;;;;;;;;;;;2103735;28;20280;-47
2022/04/01 02:16:00;;;;;;;;;;;;;;;;;;2107026;28;19924;-47
2022/04/01 02:17:01;;;;;;;;;;;;;;;;;;2108563;28;19924;-47
2022/04/01 02:18:03;;;;;;;;;;;;;;;;;;2107424;28;20051;-47
2022/04/01 02:19:03;;;;;;;;;;;;;;;;;;2101387;28;20293;-44
2022/04/01 02:20:05;;;;;;;;;;;;;;;;;;2098755;28;19928;-45
2022/04/01 02:21:10;;;;;;;;;;;;;;;;;;2090880;28;19925;-48
2022/04/01 02:22:11;;;;;;;;;;;;;;;;;;2090403;28;20286;-47
2022/04/01 02:23:12;;;;;;;;;;;;;;;;;;2091776;28;19925;-46
2022/04/01 02:24:13;;;;;;;;;;;;;;;;;;2091211;28;20220;-46
2022/04/01 02:25:14;;;;;;;;;;;;;;;;;;2090838;28;19925;-44
2022/04/01 02:26:15;;;;;;;;;;;;;;;;;;2090773;28;19934;-45
2022/04/01 02:27:17;;;;;;;;;;;;;;;;;;2094119;28;19925;-44
2022/04/01 02:28:18;;;;;;;;;;;;;;;;;;2099107;28;19916;-44
2022/04/01 02:29:19;;;;;;;;;;;;;;;;;;2099093;28;19970;-47
2022/04/01 02:30:21;;;;;;;;;;;;;;;;;;2099151;28;19924;-43
2022/04/01 02:31:21;;;;;;;;;;;;;;;;;;2100561;28;19925;-46
2022/04/01 02:32:23;;;;;;;;;;;;;;;;;;2098746;28;20230;-48
2022/04/01 02:33:25;;;;;;;;;;;;;;;;;;2098925;28;20333;-43
2022/04/01 02:34:27;;;;;;;;;;;;;;;;;;2098625;28;19936;-43
2022/04/01 02:35:30;;;;;;;;;;;;;;;;;;2099289;28;19970;-45
2022/04/01 02:36:34;;;;;;;;;;;;;;;;;;2099175;28;20004;-44
2022/04/01 02:37:35;;;;;;;;;;;;;;;;;;2099026;28;19924;-47
2022/04/01 02:38:37;;;;;;;;;;;;;;;;;;2098190;28;19931;-46
2022/04/01 02:39:38;;;;;;;;;;;;;;;;;;2098815;28;19912;-46
2022/04/01 02:40:40;;;;;;;;;;;;;;;;;;2098361;28;19995;-46
2022/04/01 02:41:41;;;;;;;;;;;;;;;;;;2098760;28;19928;-43
2022/04/01 02:42:42;;;;;;;;;;;;;;;;;;2099102;28;19960;-47
2022/04/01 02:43:43;;;;;;;;;;;;;;;;;;2094814;28;20357;-44
2022/04/01 02:44:44;;;;;;;;;;;;;;;;;;2090319;28;20387;-44
2022/04/01 02:45:45;;;;;;;;;;;;;;;;;;2091397;28;20007;-44
2022/04/01 02:46:46;;;;;;;;;;;;;;;;;;2090209;28;19925;-45
2022/04/01 02:47:47;;;;;;;;;;;;;;;;;;2090308;28;19925;-45
2022/04/01 02:48:48;;;;;;;;;;;;;;;;;;2090276;28;19931;-45
2022/04/01 02:49:49;;;;;;;;;;;;;;;;;;2090564;28;19953;-45
2022/04/01 02:50:50;;;;;;;;;;;;;;;;;;2090591;28;20345;-44
2022/04/01 02:51:53;;;;;;;;;;;;;;;;;;2090353;28;19975;-44
2022/04/01 02:52:53;;;;;;;;;;;;;;;;;;2091099;28;19936;-46
2022/04/01 02:53:55;;;;;;;;;;;;;;;;;;2090524;28;19944;-44
2022/04/01 02:54:55;;;;;;;;;;;;;;;;;;2090486;28;19971;-44
2022/04/01 02:55:57;;;;;;;;;;;;;;;;;;2090185;28;19994;-45
2022/04/01 02:56:59;;;;;;;;;;;;;;;;;;2090553;28;19924;-44
2022/04/01 02:58:00;;;;;;;;;;;;;;;;;;2090460;28;19932;-44
2022/04/01 02:59:01;;;;;;;;;;;;;;;;;;2090604;28;19924;-44
2022/04/01 03:00:02;;;;;;;;;;;;;;;;;;2090745;28;20286;-47
2022/04/01 03:01:03;;;;;;;;;;;;;;;;;;2090553;28;19933;-44
2022/04/01 03:02:04;;;;;;;;;;;;;;;;;;2090225;28;20285;-44
2022/04/01 03:03:06;;;;;;;;;;;;;;;;;;2096689;28;19928;-46
2022/04/01 03:04:09;;;;;;;;;;;;;;;;;;2098895;28;19944;-44
2022/04/01 03:05:10;;;;;;;;;;;;;;;;;;2098708;28;19924;-43
2022/04/01 03:06:11;;;;;;;;;;;;;;;;;;2098525;28;19924;-44
2022/04/01 03:07:12;;;;;;;;;;;;;;;;;;2098944;28;19932;-44
2022/04/01 03:08:13;;;;;;;;;;;;;;;;;;2098522;28;19924;-44
2022/04/01 03:09:14;;;;;;;;;;;;;;;;;;2098698;28;19925;-44
2022/04/01 03:10:17;;;;;;;;;;;;;;;;;;2099143;28;19924;-44
2022/04/01 03:11:18;;;;;;;;;;;;;;;;;;2098507;28;19925;-44
2022/04/01 03:12:19;;;;;;;;;;;;;;;;;;2098814;28;19925;-46
2022/04/01 03:13:21;;;;;;;;;;;;;;;;;;2098318;28;19925;-46
2022/04/01 03:14:23;;;;;;;;;;;;;;;;;;2098502;28;19924;-47
2022/04/01 03:15:24;;;;;;;;;;;;;;;;;;2098808;28;20297;-47
2022/04/01 03:16:25;;;;;;;;;;;;;;;;;;2097757;28;19928;-47
2022/04/01 03:17:26;;;;;;;;;;;;;;;;;;2098788;28;19924;-46
2022/04/01 03:18:27;;;;;;;;;;;;;;;;;;2098340;28;19931;-47
2022/04/01 03:19:28;;;;;;;;;;;;;;;;;;2098773;28;20385;-47
2022/04/01 03:20:30;;;;;;;;;;;;;;;;;;2098295;28;19928;-46
2022/04/01 03:21:31;;;;;;;;;;;;;;;;;;2098264;28;19924;-47
2022/04/01 03:22:34;;;;;;;;;;;;;;;;;;2098421;28;19925;-47
2022/04/01 03:23:34;;;;;;;;;;;;;;;;;;2098503;28;19925;-48
2022/04/01 03:24:35;;;;;;;;;;;;;;;;;;2098230;28;19925;-47
2022/04/01 03:25:36;;;;;;;;;;;;;;;;;;2098853;28;19931;-46
2022/04/01 03:26:37;;;;;;;;;;;;;;;;;;2098258;28;20305;-46
2022/04/01 03:27:39;;;;;;;;;;;;;;;;;;2098731;28;19931;-52
2022/04/01 03:28:40;;;;;;;;;;;;;;;;;;2098341;28;19932;-52
2022/04/01 03:29:41;;;;;;;;;;;;;;;;;;2098270;28;19924;-50
2022/04/01 03:30:42;;;;;;;;;;;;;;;;;;2098725;28;20262;-48
2022/04/01 03:31:45;;;;;;;;;;;;;;;;;;2097884;28;20443;-46
2022/04/01 03:32:46;;;;;;;;;;;;;;;;;;2098174;28;20385;-47
2022/04/01 03:33:47;;;;;;;;;;;;;;;;;;2098273;28;19974;-46
2022/04/01 03:34:48;;;;;;;;;;;;;;;;;;2098287;28;19929;-46
2022/04/01 03:35:51;;;;;;;;;;;;;;;;;;2098371;28;20266;-45
2022/04/01 03:36:54;;;;;;;;;;;;;;;;;;2098062;28;19924;-46
2022/04/01 03:37:55;;;;;;;;;;;;;;;;;;2098548;28;19924;-45
2022/04/01 03:38:56;;;;;;;;;;;;;;;;;;2098382;28;19924;-46
2022/04/01 03:39:58;;;;;;;;;;;;;;;;;;2098424;28;19924;-46
2022/04/01 03:40:59;;;;;;;;;;;;;;;;;;2098318;28;19932;-44
2022/04/01 03:42:06;;;;;;;;;;;;;;;;;;2098715;28;19924;-49
2022/04/01 03:43:07;;;;;;;;;;;;;;;;;;2098376;28;19948;-49
2022/04/01 03:44:09;;;;;;;;;;;;;;;;;;2098421;28;20370;-45
2022/04/01 03:45:10;;;;;;;;;;;;;;;;;;2098562;28;19924;-49
2022/04/01 03:46:11;;;;;;;;;;;;;;;;;;2098198;28;19931;-48
2022/04/01 03:47:12;;;;;;;;;;;;;;;;;;2098332;28;20488;-52
2022/04/01 03:48:13;;;;;;;;;;;;;;;;;;2098105;28;20370;-51
2022/04/01 03:49:14;;;;;;;;;;;;;;;;;;2098459;28;19924;-52
2022/04/01 03:50:16;;;;;;;;;;;;;;;;;;2097791;28;19924;-51
2022/04/01 03:51:17;;;;;;;;;;;;;;;;;;2097972;28;20224;-51
2022/04/01 03:52:18;;;;;;;;;;;;;;;;;;2098126;28;20343;-51
2022/04/01 03:53:19;;;;;;;;;;;;;;;;;;2098488;28;19978;-49
2022/04/01 03:54:21;;;;;;;;;;;;;;;;;;2098216;28;19925;-49
2022/04/01 03:55:21;;;;;;;;;;;;;;;;;;2098176;28;20381;-52
2022/04/01 03:56:23;;;;;;;;;;;;;;;;;;2098229;28;19925;-47
2022/04/01 03:57:23;;;;;;;;;;;;;;;;;;2098394;28;19929;-48
2022/04/01 03:58:25;;;;;;;;;;;;;;;;;;2098545;28;20369;-45
2022/04/01 03:59:25;;;;;;;;;;;;;;;;;;2097872;28;19929;-48
2022/04/01 04:00:26;;;;;;;;;;;;;;;;;;2098297;28;19924;-47
2022/04/01 04:01:27;;;;;;;;;;;;;;;;;;2097694;28;19925;-51
2022/04/01 04:02:29;;;;;;;;;;;;;;;;;;2098135;28;19932;-51
2022/04/01 04:03:29;;;;;;;;;;;;;;;;;;2098707;28;19931;-46
2022/04/01 04:04:31;;;;;;;;;;;;;;;;;;2098289;28;19947;-46
2022/04/01 04:05:32;;;;;;;;;;;;;;;;;;2098240;28;20340;-49
2022/04/01 04:06:34;;;;;;;;;;;;;;;;;;2098029;28;19947;-49
2022/04/01 04:07:35;;;;;;;;;;;;;;;;;;2098417;28;19925;-46
2022/04/01 04:08:36;;;;;;;;;;;;;;;;;;2098013;28;20022;-47
2022/04/01 04:09:37;;;;;;;;;;;;;;;;;;2098214;28;20000;-47
2022/04/01 04:10:38;;;;;;;;;;;;;;;;;;2098072;28;20009;-46
2022/04/01 04:11:39;;;;;;;;;;;;;;;;;;2098400;28;19931;-46
2022/04/01 04:12:41;;;;;;;;;;;;;;;;;;2098066;28;19924;-46
2022/04/01 04:13:45;;;;;;;;;;;;;;;;;;2098150;28;19925;-49
2022/04/01 04:14:46;;;;;;;;;;;;;;;;;;2098092;28;19940;-50
2022/04/01 04:15:47;;;;;;;;;;;;;;;;;;2098254;28;19956;-49
2022/04/01 04:16:48;;;;;;;;;;;;;;;;;;2097857;28;19964;-51
2022/04/01 04:17:49;;;;;;;;;;;;;;;;;;2098021;28;20378;-49
2022/04/01 04:18:50;;;;;;;;;;;;;;;;;;2098009;28;19924;-49
2022/04/01 04:19:51;;;;;;;;;;;;;;;;;;2098017;28;19924;-51
2022/04/01 04:20:54;;;;;;;;;;;;;;;;;;2097887;28;20297;-50
2022/04/01 04:21:55;;;;;;;;;;;;;;;;;;2097988;28;19925;-46
2022/04/01 04:22:56;;;;;;;;;;;;;;;;;;2098244;28;19924;-49
2022/04/01 04:23:57;;;;;;;;;;;;;;;;;;2096820;28;19924;-50
2022/04/01 04:24:59;;;;;;;;;;;;;;;;;;2095163;28;20179;-48
2022/04/01 04:26:00;;;;;;;;;;;;;;;;;;2091054;28;19929;-46
2022/04/01 04:27:01;;;;;;;;;;;;;;;;;;2095300;28;19925;-46
2022/04/01 04:28:02;;;;;;;;;;;;;;;;;;2089963;28;19928;-45
2022/04/01 04:29:03;;;;;;;;;;;;;;;;;;2091687;28;19935;-46
2022/04/01 04:30:08;;;;;;;;;;;;;;;;;;2098043;28;19932;-49
2022/04/01 04:31:09;;;;;;;;;;;;;;;;;;2096011;28;19970;-51
2022/04/01 04:32:10;;;;;;;;;;;;;;;;;;2091065;28;19925;-48
2022/04/01 04:33:11;;;;;;;;;;;;;;;;;;2093753;28;19982;-51
2022/04/01 04:34:12;;;;;;;;;;;;;;;;;;2098401;28;20274;-45
2022/04/01 04:35:14;;;;;;;;;;;;;;;;;;2098379;28;19959;-45
2022/04/01 04:36:15;;;;;;;;;;;;;;;;;;2097806;28;19932;-44
2022/04/01 04:37:16;;;;;;;;;;;;;;;;;;2098357;28;20374;-49
2022/04/01 04:38:20;;;;;;;;;;;;;;;;;;2094837;28;19924;-50
2022/04/01 04:39:22;;;;;;;;;;;;;;;;;;2092818;28;19924;-47
2022/04/01 04:40:23;;;;;;;;;;;;;;;;;;2095599;28;19925;-45
2022/04/01 04:41:24;;;;;;;;;;;;;;;;;;2092501;28;19928;-45
2022/04/01 04:42:27;;;;;;;;;;;;;;;;;;2091517;28;19942;-45
2022/04/01 04:43:28;;;;;;;;;;;;;;;;;;2089803;28;19924;-45
2022/04/01 04:44:30;;;;;;;;;;;;;;;;;;2089665;28;19932;-46
2022/04/01 04:45:31;;;;;;;;;;;;;;;;;;2089857;28;20289;-49
2022/04/01 04:46:32;;;;;;;;;;;;;;;;;;2096273;28;19928;-49
2022/04/01 04:47:33;;;;;;;;;;;;;;;;;;2098091;28;19935;-45
2022/04/01 04:48:34;;;;;;;;;;;;;;;;;;2098020;28;19932;-44
2022/04/01 04:49:35;;;;;;;;;;;;;;;;;;2097927;28;19925;-46
2022/04/01 04:50:36;;;;;;;;;;;;;;;;;;2097627;28;20296;-45
2022/04/01 04:51:39;;;;;;;;;;;;;;;;;;2093062;28;19924;-45
2022/04/01 04:52:40;;;;;;;;;;;;;;;;;;2090154;28;19925;-45
2022/04/01 04:53:41;;;;;;;;;;;;;;;;;;2098013;28;19924;-45
2022/04/01 04:54:42;;;;;;;;;;;;;;;;;;2097751;28;19925;-47
2022/04/01 04:55:44;;;;;;;;;;;;;;;;;;2097639;28;19978;-46
2022/04/01 04:56:45;;;;;;;;;;;;;;;;;;2098024;28;19924;-49
2022/04/01 04:57:46;;;;;;;;;;;;;;;;;;2097914;28;19924;-45
2022/04/01 04:58:47;;;;;;;;;;;;;;;;;;2097808;28;20401;-46
2022/04/01 04:59:48;;;;;;;;;;;;;;;;;;2097850;28;19944;-44
2022/04/01 05:00:49;;;;;;;;;;;;;;;;;;2097767;28;19924;-46
2022/04/01 05:01:50;;;;;;;;;;;;;;;;;;2097818;28;20293;-48
2022/04/01 05:02:51;;;;;;;;;;;;;;;;;;2097451;28;19931;-49
2022/04/01 05:03:52;;;;;;;;;;;;;;;;;;2097779;28;19924;-50
2022/04/01 05:04:53;;;;;;;;;;;;;;;;;;2097723;28;19936;-48
2022/04/01 05:05:56;;;;;;;;;;;;;;;;;;2098103;28;19941;-44
2022/04/01 05:06:56;;;;;;;;;;;;;;;;;;2097905;28;19974;-45
2022/04/01 05:07:57;;;;;;;;;;;;;;;;;;2098020;28;19924;-52
2022/04/01 05:08:58;;;;;;;;;;;;;;;;;;2096413;28;19924;-51
2022/04/01 05:10:05;;;;;;;;;;;;;;;;;;2089939;28;19937;-44
2022/04/01 05:11:06;;;;;;;;;;;;;;;;;;2089445;28;19925;-45
2022/04/01 05:12:07;;;;;;;;;;;;;;;;;;2089734;28;19994;-48
2022/04/01 05:13:08;;;;;;;;;;;;;;;;;;2089368;28;19925;-49
2022/04/01 05:14:11;;;;;;;;;;;;;;;;;;2089916;28;19924;-45
2022/04/01 05:15:16;;;;;;;;;;;;;;;;;;2089593;28;19925;-45
2022/04/01 05:16:18;;;;;;;;;;;;;;;;;;2089754;28;20258;-50
2022/04/01 05:17:19;;;;;;;;;;;;;;;;;;2093663;28;20297;-49
2022/04/01 05:18:20;;;;;;;;;;;;;;;;;;2089720;28;19925;-46
2022/04/01 05:19:22;;;;;;;;;;;;;;;;;;2089881;28;20492;-45
2022/04/01 05:20:23;;;;;;;;;;;;;;;;;;2094125;28;19932;-45
2022/04/01 05:21:24;;;;;;;;;;;;;;;;;;2096652;28;20401;-44
2022/04/01 05:22:25;;;;;;;;;;;;;;;;;;2089376;28;19929;-44
2022/04/01 05:23:26;;;;;;;;;;;;;;;;;;2089429;28;20389;-46
2022/04/01 05:24:29;;;;;;;;;;;;;;;;;;2089155;28;19925;-45
2022/04/01 05:25:30;;;;;;;;;;;;;;;;;;2090644;28;19925;-47
2022/04/01 05:26:38;;;;;;;;;;;;;;;;;;2097953;28;19925;-50
2022/04/01 05:27:40;;;;;;;;;;;;;;;;;;2091108;28;19932;-45
2022/04/01 05:28:41;;;;;;;;;;;;;;;;;;2089825;28;19929;-45
2022/04/01 05:29:42;;;;;;;;;;;;;;;;;;2095814;28;19924;-45
2022/04/01 05:30:43;;;;;;;;;;;;;;;;;;2098124;28;19936;-45
2022/04/01 05:31:45;;;;;;;;;;;;;;;;;;2097643;28;20243;-46
2022/04/01 05:32:46;;;;;;;;;;;;;;;;;;2092248;28;19925;-45
2022/04/01 05:33:47;;;;;;;;;;;;;;;;;;2089436;28;19932;-47
2022/04/01 05:34:49;;;;;;;;;;;;;;;;;;2090089;28;19925;-45
2022/04/01 05:35:51;;;;;;;;;;;;;;;;;;2089334;28;19932;-46
2022/04/01 05:36:53;;;;;;;;;;;;;;;;;;2089149;28;19924;-45
2022/04/01 05:37:54;;;;;;;;;;;;;;;;;;2092503;28;19929;-46
2022/04/01 05:38:55;;;;;;;;;;;;;;;;;;2097831;28;19931;-48
2022/04/01 05:39:56;;;;;;;;;;;;;;;;;;2097710;28;19925;-45
2022/04/01 05:40:58;;;;;;;;;;;;;;;;;;2096801;28;20400;-45
2022/04/01 05:41:59;;;;;;;;;;;;;;;;;;2089753;28;19925;-48
2022/04/01 05:43:00;;;;;;;;;;;;;;;;;;2088808;28;20418;-49
2022/04/01 05:44:03;;;;;;;;;;;;;;;;;;2089372;28;19931;-49
2022/04/01 05:45:04;;;;;;;;;;;;;;;;;;2089149;28;20106;-52
2022/04/01 05:46:05;;;;;;;;;;;;;;;;;;2094138;28;19924;-49
2022/04/01 05:47:07;;;;;;;;;;;;;;;;;;2097148;28;19925;-48
2022/04/01 05:48:09;;;;;;;;;;;;;;;;;;2097641;28;20195;-46
2022/04/01 05:49:10;;;;;;;;;;;;;;;;;;2097713;28;19925;-49
2022/04/01 05:50:11;;;;;;;;;;;;;;;;;;2097663;28;19932;-50
2022/04/01 05:51:13;;;;;;;;;;;;;;;;;;2097746;28;19952;-45
2022/04/01 05:52:14;;;;;;;;;;;;;;;;;;2096763;28;19930;-46
2022/04/01 05:53:15;;;;;;;;;;;;;;;;;;2094418;28;20390;-45
2022/04/01 05:54:19;;;;;;;;;;;;;;;;;;2094985;28;19924;-46
2022/04/01 05:55:20;;;;;;;;;;;;;;;;;;2089404;28;19978;-45
2022/04/01 05:56:21;;;;;;;;;;;;;;;;;;2089903;28;19925;-51
2022/04/01 05:57:22;;;;;;;;;;;;;;;;;;2089597;28;19925;-53
2022/04/01 05:58:23;;;;;;;;;;;;;;;;;;2092722;28;20240;-50
2022/04/01 05:59:24;;;;;;;;;;;;;;;;;;2097848;28;19925;-49
2022/04/01 06:00:26;;;;;;;;;;;;;;;;;;2097883;28;20385;-50
2022/04/01 06:01:28;;;;;;;;;;;;;;;;;;2097183;28;20378;-52
2022/04/01 06:02:30;;;;;;;;;;;;;;;;;;2097747;28;19968;-46
2022/04/01 06:03:32;;;;;;;;;;;;;;;;;;2097776;28;20008;-50
2022/04/01 06:04:34;;;;;;;;;;;;;;;;;;2097479;28;20003;-51
2022/04/01 06:05:35;;;;;;;;;;;;;;;;;;2097632;28;19999;-46
2022/04/01 06:06:37;;;;;;;;;;;;;;;;;;2097408;28;20331;-48
2022/04/01 06:07:38;;;;;;;;;;;;;;;;;;2097281;28;19983;-47
2022/04/01 06:08:44;;;;;;;;;;;;;;;;;;2097374;28;20019;-46
2022/04/01 06:09:45;;;;;;;;;;;;;;;;;;2097474;28;20441;-47
2022/04/01 06:10:47;;;;;;;;;;;;;;;;;;2092747;28;20014;-47
2022/04/01 06:11:49;;;;;;;;;;;;;;;;;;2089230;28;20790;-52
2022/04/01 06:12:51;;;;;;;;;;;;;;;;;;2089169;28;19952;-52
2022/04/01 06:13:52;;;;;;;;;;;;;;;;;;2089322;28;19932;-51
2022/04/01 06:14:53;;;;;;;;;;;;;;;;;;2090654;28;19929;-50
2022/04/01 06:15:55;;;;;;;;;;;;;;;;;;2090791;28;19960;-50
2022/04/01 06:16:56;;;;;;;;;;;;;;;;;;2090434;28;19925;-49
2022/04/01 06:17:58;;;;;;;;;;;;;;;;;;2091229;28;20427;-51
2022/04/01 06:18:59;;;;;;;;;;;;;;;;;;2090472;28;20366;-50
2022/04/01 06:20:00;;;;;;;;;;;;;;;;;;2090579;28;20344;-50
2022/04/01 06:21:03;;;;;;;;;;;;;;;;;;2090574;28;19924;-49
2022/04/01 06:22:05;;;;;;;;;;;;;;;;;;2090741;28;19928;-46
2022/04/01 06:23:06;;;;;;;;;;;;;;;;;;2092004;28;20003;-47
2022/04/01 06:24:08;;;;;;;;;;;;;;;;;;2097750;28;19932;-47
2022/04/01 06:25:13;;;;;;;;;;;;;;;;;;2093917;28;20279;-47
2022/04/01 06:26:15;;;;;;;;;;;;;;;;;;2090430;28;19931;-47
2022/04/01 06:27:16;;;;;;;;;;;;;;;;;;2094068;28;19963;-47
2022/04/01 06:28:20;;;;;;;;;;;;;;;;;;2098707;28;20054;-48
2022/04/01 06:29:22;;;;;;;;;;;;;;;;;;2098598;28;19979;-48
2022/04/01 06:30:24;;;;;;;;;;;;;;;;;;2098537;28;20397;-47
2022/04/01 06:31:25;;;;;;;;;;;;;;;;;;2098300;28;20409;-47
2022/04/01 06:32:30;;;;;;;;;;;;;;;;;;2099158;28;19929;-53
2022/04/01 06:33:31;;;;;;;;;;;;;;;;;;2099075;28;19928;-49
2022/04/01 06:34:33;;;;;;;;;;;;;;;;;;2098962;28;20403;-47
2022/04/01 06:35:35;;;;;;;;;;;;;;;;;;2098499;28;20015;-46
2022/04/01 06:36:36;;;;;;;;;;;;;;;;;;2098574;28;20334;-47
2022/04/01 06:37:38;;;;;;;;;;;;;;;;;;2098041;28;20368;-46
2022/04/01 06:38:39;;;;;;;;;;;;;;;;;;2098340;28;19969;-51
2022/04/01 06:39:41;;;;;;;;;;;;;;;;;;2094845;28;19930;-54
2022/04/01 06:40:42;;;;;;;;;;;;;;;;;;2097041;28;19960;-46
2022/04/01 06:41:44;;;;;;;;;;;;;;;;;;2090463;28;19978;-53
2022/04/01 06:42:46;;;;;;;;;;;;;;;;;;2090625;28;19955;-47
2022/04/01 06:43:47;;;;;;;;;;;;;;;;;;2090603;28;20381;-51
2022/04/01 06:44:48;;;;;;;;;;;;;;;;;;2092540;28;20418;-50
2022/04/01 06:45:50;;;;;;;;;;;;;;;;;;2098823;28;20045;-47
2022/04/01 06:46:52;;;;;;;;;;;;;;;;;;2098706;28;19924;-53
2022/04/01 06:47:53;;;;;;;;;;;;;;;;;;2098419;28;20385;-53
2022/04/01 06:48:55;;;;;;;;;;;;;;;;;;2096872;28;19924;-46
2022/04/01 06:49:57;;;;;;;;;;;;;;;;;;2093724;28;19932;-46
2022/04/01 06:50:58;;;;;;;;;;;;;;;;;;2096833;28;20022;-48
2022/04/01 06:52:01;;;;;;;;;;;;;;;;;;2095692;28;20628;-46
2022/04/01 06:53:03;;;;;;;;;;;;;;;;;;2093851;28;19979;-50
2022/04/01 06:54:05;;;;;;;;;;;;;;;;;;2094031;28;20416;-51
2022/04/01 06:55:08;;;;;;;;;;;;;;;;;;2093725;28;19932;-49
2022/04/01 06:56:09;;;;;;;;;;;;;;;;;;2097003;28;19933;-49
2022/04/01 06:57:11;;;;;;;;;;;;;;;;;;2096998;28;20433;-47
2022/04/01 06:58:12;;;;;;;;;;;;;;;;;;2092498;28;20406;-49
2022/04/01 06:59:15;;;;;;;;;;;;;;;;;;2095022;28;20374;-50
2022/04/01 07:00:16;;;;;;;;;;;;;;;;;;2092897;28;19956;-47
2022/04/01 07:01:18;;;;;;;;;;;;;;;;;;2094742;28;20220;-45
2022/04/01 07:02:20;;;;;;;;;;;;;;;;;;2093014;28;19925;-46
2022/04/01 07:03:22;;;;;;;;;;;;;;;;;;2094634;28;19977;-49
2022/04/01 07:04:23;;;;;;;;;;;;;;;;;;2093824;28;20384;-49
2022/04/01 07:05:25;;;;;;;;;;;;;;;;;;2094153;28;19929;-47
2022/04/01 07:06:26;;;;;;;;;;;;;;;;;;2093791;28;20007;-46